Home   Weather   India   Domkal   Past weeks
Flag for India

Past Weather in Domkal, West Bengal, India — Yesterday and Last 2 Weeks

Currently: 88 °F. Scattered clouds. (Weather station: Calcutta / Dum Dum, India). See more current weather

Past Weather in Domkal — Graph

°F

Domkal Temperature Yesterday

Maximum temperature yesterday: 91 °F (at 10:30 am)
Minimum temperature yesterday: 82 °F (at 3:00 am)
Average temperature yesterday: 86 °F

High & Low Weather Summary for the Past Weeks

 TemperatureHumidityPressure
High97 °F (Jul 11, 1:30 pm)100% (Jul 6, 2:00 pm)29.71 "Hg (Jul 6, 2:00 pm)
Low70 °F (Jul 15, 4:30 pm)14% (Jul 7, 2:00 pm)29.36 "Hg (Jul 19, 3:00 pm)
Average86 °F83%29.53 "Hg
* Reported Jul 5 5:30 pm — Jul 20 6:00 pm, Domkal. Weather by CustomWeather, © 2024

Note: Actual official high and low records may vary slightly from our data, if they occured in-between our weather recording intervals... More about our weather records

Domkal Weather History for the Previous 24 Hours

Scroll right to see more
 ConditionsComfort  
Time TempWeatherWind HumidityBarometerVisibility
6:00 pm
Sat, Jul 20
88 °FScattered clouds.10 mph79%29.42 "Hg2 mi
5:30 pm90 °FScattered clouds.12 mph75%29.42 "Hg3 mi
5:25 pm90 °FScattered clouds.12 mph75%29.42 "Hg3 mi
5:00 pm91 °FScattered clouds.9 mph75%29.42 "Hg3 mi
4:30 pm90 °FScattered clouds.12 mph75%29.39 "Hg3 mi
4:00 pm90 °FScattered clouds.9 mph75%29.39 "Hg3 mi
3:30 pm91 °FScattered clouds.14 mph71%29.39 "Hg3 mi
3:00 pm91 °FScattered clouds.12 mph71%29.42 "Hg3 mi
2:30 pm91 °FScattered clouds.13 mph67%29.42 "Hg3 mi
2:00 pm91 °FScattered clouds.13 mph71%29.42 "Hg2 mi
1:00 pm90 °FBroken clouds.13 mph79%29.45 "Hg2 mi
12:30 pm90 °FBroken clouds.12 mph79%29.45 "Hg2 mi
12:00 pm88 °FBroken clouds.13 mph84%29.47 "Hg2 mi
11:30 am86 °FLight rain. Broken clouds.12 mph89%29.47 "Hg2 mi
11:00 am91 °FBroken clouds.10 mph75%29.47 "Hg2 mi
10:30 am90 °FBroken clouds.12 mph79%29.47 "Hg2 mi
10:00 am90 °FBroken clouds.12 mph79%29.47 "Hg2 mi
9:30 am90 °FBroken clouds.10 mph79%29.47 "Hg2 mi
9:00 am88 °FBroken clouds.8 mph84%29.47 "Hg2 mi
8:30 am88 °FBroken clouds.12 mph84%29.47 "Hg2 mi
8:00 am86 °FBroken clouds.12 mph89%29.47 "Hg2 mi
7:30 am86 °FLight rain. Broken clouds.8 mph89%29.47 "Hg2 mi
7:00 am84 °FLight rain. Broken clouds.9 mph89%29.47 "Hg2 mi
6:30 am82 °FLight rain. Broken clouds.9 mph94%29.45 "Hg2 mi
6:00 am84 °FBroken clouds.10 mph89%29.45 "Hg2 mi
5:30 am82 °FPartly cloudy.8 mph94%29.45 "Hg2 mi
5:00 am82 °FPartly cloudy.7 mph89%29.42 "Hg2 mi
4:30 am82 °FPassing clouds.8 mph94%29.42 "Hg2 mi
4:00 am82 °FPassing clouds.8 mph94%29.42 "Hg2 mi
3:30 am82 °FPassing clouds.7 mph89%29.42 "Hg2 mi
3:00 am82 °FPassing clouds.7 mph89%29.42 "Hg2 mi
2:30 am82 °FPassing clouds.6 mph89%29.42 "Hg2 mi
2:00 am82 °FPassing clouds.5 mph89%29.42 "Hg2 mi
1:30 am84 °FPassing clouds.6 mph89%29.45 "Hg2 mi
12:30 am84 °FPassing clouds.7 mph89%29.45 "Hg2 mi
12:00 am84 °FPassing clouds.7 mph89%29.45 "Hg2 mi
11:30 pm
Fri, Jul 19
84 °FPassing clouds.8 mph89%29.45 "Hg2 mi
11:00 pm84 °FPassing clouds.8 mph89%29.45 "Hg2 mi
10:30 pm84 °FPassing clouds.7 mph89%29.47 "Hg2 mi
10:00 pm84 °FPassing clouds.6 mph89%29.47 "Hg2 mi
9:30 pm84 °FPartly cloudy.9 mph89%29.45 "Hg2 mi
9:00 pm84 °FPartly cloudy.8 mph89%29.45 "Hg2 mi
8:30 pm84 °FPartly cloudy.7 mph89%29.45 "Hg2 mi
8:00 pm84 °FPartly cloudy.6 mph89%29.45 "Hg2 mi
7:00 pm84 °FThunderstorms. Partly cloudy.6 mph89%29.42 "Hg2 mi
Weather by CustomWeather, © 2024

See weather overview